Airfield :
LOGIN :

Register | Disclaimer

   EN    FR    IT 

 










Legend :    VFR   Marginal VFR   IFR   Intensive IFR   Very Intensive IFR
Visi :
Ceiling :
>= 8 km
>= 3000ft
5 to 8 km
1000 to 3000 ft
1500m to 5 km
500 to 1000 ft
800 to 1500m
200 to 500 ft
< 800m
< 200 ft
Symbols :   Thunderstorms  Fog  Heavy snow  Heavy precipitations  Wind > 20 kt
SIGMETs :     Misc.  Thunderstorms  Icing  Turbulence  Mountain Waves  Volcanic Ashes







- Airport Elevation : 1273 ft
- IATA code : LJU


LJLJ - Ljubljana

CURRENT METAR :
  • 271330Z 15005KT 120V200 9999 FEW063 SCT078 25/09 Q1020 NOSIG

EXPIRED METARs :
  • 271300Z 11006KT 020V140 9999 FEW063 SCT078 25/10 Q1020 NOSIG
  • 271230Z 14007KT 100V190 9999 FEW063 SCT080 25/10 Q1020 NOSIG
  • 271200Z 09005KT 040V150 9999 FEW068 SCT077 24/10 Q1020 NOSIG
  • 271130Z 09004KT 060V190 9999 FEW068 24/10 Q1020 NOSIG
  • 271100Z 15004KT 080V190 9999 FEW068 23/10 Q1021 NOSIG
  • 271030Z 08005KT 350V120 9999 FEW068 23/10 Q1021 NOSIG

TAF TAF LJLJ
Valid from the 27 at 12:00 until the 28 at 12:00 UTC


271100Z 2712/2812 11005KT 9999 FEW070
BECMG 2717/2719 30003KT
BECMG 2808/2810 11005KT
No reported NOTAMs for that airfield.



MET'MAP, your aeronautical weather chart ! - Copyright ORBIFLY December 2007 - Disclaimer

ORBIFLY MET'MAP TEAM :

Programming & Development : Alexandra Zaïnal
Concept & Development : Baudouin d'Aumeries
Co-Development & Prog : Marc-Olivier Méhu
Technical & hardware support : Manuel Goepfert

Contact : metmap@orbifly.com




SOURCES & CREDITS :

   NOAA